Time;durP1;ratioP1;P1;durP2;ratioP2;P2;SDS_P1;SDS_P2;PMS_P1;PMS_P2;Temp;Humidity;BMP_temperature;BMP_pressure;BME280_temperature;BME280_humidity;BME280_pressure;Samples;Min_cycle;Max_cycle;Signal;HPM_P1;HPM_P2
2023/08/25 00:02:09;;;;;;;1999.90;999.90;;;;;;;20.13;100.00;93542.19;5064166;28;20170;-54
2023/08/25 00:04:35;;;;;;;1999.90;999.90;;;;;;;20.13;100.00;93542.19;5064023;28;20194;-55
2023/08/25 00:07:01;;;;;;;1999.90;999.90;;;;;;;20.13;100.00;93542.19;5063644;28;20166;-56
2023/08/25 00:09:26;;;;;;;1999.90;999.90;;;;;;;20.13;100.00;93542.19;5063846;28;20173;-56
2023/08/25 00:11:51;;;;;;;1999.90;999.90;;;;;;;20.13;100.00;93542.19;5063836;28;20189;-50
2023/08/25 00:14:17;;;;;;;1999.90;999.90;;;;;;;20.13;100.00;93542.19;5063592;28;20249;-52
2023/08/25 00:16:42;;;;;;;1999.90;999.90;;;;;;;20.13;100.00;93542.19;5064108;28;20166;-50
2023/08/25 00:19:07;;;;;;;1999.90;999.90;;;;;;;20.13;100.00;93542.19;5063810;28;20166;-55
2023/08/25 00:21:33;;;;;;;1999.90;999.90;;;;;;;20.13;100.00;93542.19;5063525;28;20657;-56
2023/08/25 00:23:58;;;;;;;1999.90;999.90;;;;;;;20.13;100.00;93542.19;5063258;28;20213;-55
2023/08/25 00:26:23;;;;;;;1999.90;999.90;;;;;;;20.13;100.00;93542.19;5063419;28;20197;-57
2023/08/25 00:28:49;;;;;;;1999.90;999.90;;;;;;;20.13;100.00;93542.19;5063402;28;20174;-58
2023/08/25 00:31:14;;;;;;;1999.90;999.90;;;;;;;20.13;100.00;93542.19;5063371;28;20170;-58
2023/08/25 00:33:50;;;;;;;1999.90;999.90;;;;;;;20.13;100.00;93542.19;5063279;28;20175;-57
2023/08/25 00:36:15;;;;;;;1999.90;999.90;;;;;;;20.13;100.00;93542.19;5063858;28;20176;-58
2023/08/25 00:38:40;;;;;;;1999.90;999.90;;;;;;;20.13;100.00;93542.19;5063214;28;20162;-57
2023/08/25 00:41:06;;;;;;;1999.90;999.90;;;;;;;20.13;100.00;93542.19;5063378;28;20170;-58
2023/08/25 00:43:33;;;;;;;1999.90;999.90;;;;;;;20.13;100.00;93542.19;5063053;28;20236;-58
2023/08/25 00:45:59;;;;;;;1999.90;999.90;;;;;;;20.13;100.00;93542.19;5065180;28;20170;-58
2023/08/25 00:48:25;;;;;;;1999.90;999.90;;;;;;;20.13;100.00;93542.19;5066837;28;20177;-58
2023/08/25 00:50:53;;;;;;;1999.90;999.90;;;;;;;20.13;100.00;93542.19;5066934;28;20177;-58
2023/08/25 00:53:18;;;;;;;1999.90;999.90;;;;;;;20.13;100.00;93542.19;5067177;28;20170;-59
2023/08/25 00:55:44;;;;;;;1999.90;999.90;;;;;;;20.13;100.00;93542.19;5066611;28;20180;-58
2023/08/25 00:58:10;;;;;;;1999.90;999.90;;;;;;;20.13;100.00;93542.19;5066673;28;20200;-59
2023/08/25 01:00:36;;;;;;;1999.90;999.90;;;;;;;20.13;100.00;93542.19;5066864;28;20224;-59
2023/08/25 01:03:02;;;;;;;1999.90;999.90;;;;;;;20.13;100.00;93542.19;5066920;28;20194;-59
2023/08/25 01:05:28;;;;;;;1999.90;999.90;;;;;;;20.13;100.00;93542.19;5066631;28;20170;-59
2023/08/25 01:07:57;;;;;;;1999.90;999.90;;;;;;;20.13;100.00;93542.19;5066929;28;20211;-60
2023/08/25 01:10:28;;;;;;;1999.90;999.90;;;;;;;20.13;100.00;93542.19;5066523;28;20170;-59
2023/08/25 01:13:10;;;;;;;1999.90;999.90;;;;;;;20.13;100.00;93542.19;5067010;28;20170;-59
2023/08/25 01:15:38;;;;;;;1999.90;999.90;;;;;;;20.13;100.00;93542.19;5067039;28;20177;-60
2023/08/25 01:18:17;;;;;;;1999.90;999.90;;;;;;;20.13;100.00;93542.19;5066265;28;20241;-60
2023/08/25 01:20:46;;;;;;;1999.90;999.90;;;;;;;20.13;100.00;93542.19;5066662;28;20196;-60
2023/08/25 01:23:11;;;;;;;1999.90;999.90;;;;;;;20.13;100.00;93542.19;5066652;28;20190;-60
2023/08/25 01:25:37;;;;;;;1999.90;999.90;;;;;;;20.13;100.00;93542.19;5066192;28;20265;-59
2023/08/25 01:28:04;;;;;;;1999.90;999.90;;;;;;;20.13;100.00;93542.19;5066116;28;20169;-60
2023/08/25 01:30:31;;;;;;;1999.90;999.90;;;;;;;20.13;100.00;93542.19;5066646;28;20212;-59
2023/08/25 01:33:05;;;;;;;1999.90;999.90;;;;;;;20.13;100.00;93542.19;5066503;28;20170;-60
2023/08/25 01:35:43;;;;;;;1999.90;999.90;;;;;;;20.13;100.00;93542.19;5066652;28;20181;-58
2023/08/25 01:38:15;;;;;;;1999.90;999.90;;;;;;;20.13;100.00;93542.19;5066192;28;20150;-59
2023/08/25 01:41:06;;;;;;;1999.90;999.90;;;;;;;20.13;100.00;93542.19;5066456;28;20192;-58
2023/08/25 01:43:37;;;;;;;1999.90;999.90;;;;;;;20.13;100.00;93542.19;5047767;28;20245;-58
2023/08/25 01:46:02;;;;;;;1999.90;999.90;;;;;;;20.13;100.00;93542.19;5066362;28;20158;-59
2023/08/25 01:48:30;;;;;;;1999.90;999.90;;;;;;;20.13;100.00;93542.19;5066538;28;20162;-58
2023/08/25 01:50:56;;;;;;;1999.90;999.90;;;;;;;20.13;100.00;93542.19;5065731;28;20158;-60
2023/08/25 01:53:21;;;;;;;1999.90;999.90;;;;;;;20.13;100.00;93542.19;5065602;28;20172;-59
2023/08/25 01:55:47;;;;;;;1999.90;999.90;;;;;;;20.13;100.00;93542.19;5066047;28;20190;-59
2023/08/25 01:58:13;;;;;;;1999.90;999.90;;;;;;;20.13;100.00;93542.19;5064600;28;20158;-59
2023/08/25 02:00:39;;;;;;;1999.90;999.90;;;;;;;20.13;100.00;93542.19;5065370;28;20228;-60
2023/08/25 02:03:04;;;;;;;1999.90;999.90;;;;;;;20.13;100.00;93542.19;5066243;28;20186;-60
2023/08/25 02:05:29;;;;;;;1999.90;999.90;;;;;;;20.13;100.00;93542.19;5065455;28;20158;-60
2023/08/25 02:07:55;;;;;;;1999.90;999.90;;;;;;;20.13;100.00;93542.19;5065346;28;20158;-63
2023/08/25 02:10:20;;;;;;;1999.90;999.90;;;;;;;20.13;100.00;93542.19;5065724;28;20169;-60
2023/08/25 02:12:45;;;;;;;1999.90;999.90;;;;;;;20.13;100.00;93542.19;5065318;28;20200;-60
2023/08/25 02:15:11;;;;;;;1999.90;999.90;;;;;;;20.13;100.00;93542.19;5065440;28;20237;-60
2023/08/25 02:17:36;;;;;;;1999.90;999.90;;;;;;;20.13;100.00;93542.19;5065745;28;20169;-60
2023/08/25 02:20:04;;;;;;;1999.90;999.90;;;;;;;20.13;100.00;93542.19;5065141;28;20161;-60
2023/08/25 02:22:29;;;;;;;1999.90;999.90;;;;;;;20.13;100.00;93542.19;5065115;28;20168;-60
2023/08/25 02:24:55;;;;;;;1999.90;999.90;;;;;;;20.13;100.00;93542.19;5065051;28;20225;-61
2023/08/25 02:27:20;;;;;;;1999.90;999.90;;;;;;;20.13;100.00;93542.19;5065083;28;20162;-60
2023/08/25 02:29:45;;;;;;;1999.90;999.90;;;;;;;20.13;100.00;93542.19;5065165;28;20227;-61
2023/08/25 02:32:11;;;;;;;1999.90;999.90;;;;;;;20.13;100.00;93542.19;5065380;28;20162;-60
2023/08/25 02:34:36;;;;;;;1999.90;999.90;;;;;;;20.13;100.00;93542.19;5065136;28;20193;-61
2023/08/25 02:37:01;;;;;;;1999.90;999.90;;;;;;;20.13;100.00;93542.19;5065546;28;20166;-60
2023/08/25 02:39:27;;;;;;;1999.90;999.90;;;;;;;20.13;100.00;93542.19;5064948;28;20208;-59
2023/08/25 02:41:52;;;;;;;1999.90;999.90;;;;;;;20.13;100.00;93542.19;5064804;28;20244;-60
2023/08/25 02:44:17;;;;;;;1999.90;999.90;;;;;;;20.13;100.00;93542.19;5064563;28;20193;-60
2023/08/25 02:46:43;;;;;;;1999.90;999.90;;;;;;;20.13;100.00;93542.19;5065174;28;20238;-59
2023/08/25 02:49:08;;;;;;;1999.90;999.90;;;;;;;20.13;100.00;93542.19;5064535;28;20174;-60
2023/08/25 02:51:33;;;;;;;1999.90;999.90;;;;;;;20.13;100.00;93542.19;5064571;28;20172;-60
2023/08/25 02:53:59;;;;;;;1999.90;999.90;;;;;;;20.13;100.00;93542.19;5064568;28;20166;-61
2023/08/25 02:56:24;;;;;;;1999.90;999.90;;;;;;;20.13;100.00;93542.19;5064477;28;20195;-60
2023/08/25 02:58:50;;;;;;;1999.90;999.90;;;;;;;20.13;100.00;93542.19;5064389;28;20166;-61
2023/08/25 03:01:15;;;;;;;1999.90;999.90;;;;;;;20.13;100.00;93542.19;5064484;28;20214;-61
2023/08/25 03:03:41;;;;;;;1999.90;999.90;;;;;;;20.13;100.00;93542.19;5064214;28;20198;-61
2023/08/25 03:06:06;;;;;;;1999.90;999.90;;;;;;;20.13;100.00;93542.19;5064804;28;20165;-61
2023/08/25 03:08:31;;;;;;;1999.90;999.90;;;;;;;20.13;100.00;93542.19;5064120;28;20173;-60
2023/08/25 03:10:57;;;;;;;1999.90;999.90;;;;;;;20.13;100.00;93542.19;5064170;28;20166;-62
2023/08/25 03:13:22;;;;;;;1999.90;999.90;;;;;;;20.13;100.00;93542.19;5064685;28;20173;-61
2023/08/25 03:15:52;;;;;;;1999.90;999.90;;;;;;;20.13;100.00;93542.19;5064133;28;20325;-60
2023/08/25 03:18:17;;;;;;;1999.90;999.90;;;;;;;20.13;100.00;93542.19;5064086;28;20187;-61
2023/08/25 03:20:43;;;;;;;1999.90;999.90;;;;;;;20.13;100.00;93542.19;5064081;28;20196;-60
2023/08/25 03:23:08;;;;;;;1999.90;999.90;;;;;;;20.13;100.00;93542.19;5063890;28;20193;-61
2023/08/25 03:25:37;;;;;;;1999.90;999.90;;;;;;;20.13;100.00;93542.19;5064415;28;20165;-62
2023/08/25 03:28:03;;;;;;;1999.90;999.90;;;;;;;20.13;100.00;93542.19;5063946;28;20162;-60
2023/08/25 03:30:29;;;;;;;1999.90;999.90;;;;;;;20.13;100.00;93542.19;5063862;28;20173;-60
2023/08/25 03:32:55;;;;;;;1999.90;999.90;;;;;;;20.13;100.00;93542.19;5063772;28;20170;-61
2023/08/25 03:35:20;;;;;;;1999.90;999.90;;;;;;;20.13;100.00;93542.19;5064297;28;20180;-61
2023/08/25 03:37:45;;;;;;;1999.90;999.90;;;;;;;20.13;100.00;93542.19;5064358;28;20166;-61
2023/08/25 03:40:11;;;;;;;1999.90;999.90;;;;;;;20.13;100.00;93542.19;5063802;28;20248;-61
2023/08/25 03:42:36;;;;;;;1999.90;999.90;;;;;;;20.13;100.00;93542.19;5063634;28;20176;-61
2023/08/25 03:45:02;;;;;;;1999.90;999.90;;;;;;;20.13;100.00;93542.19;5064249;28;20181;-61
2023/08/25 03:47:27;;;;;;;1999.90;999.90;;;;;;;20.13;100.00;93542.19;5063753;28;20169;-61
2023/08/25 03:49:52;;;;;;;1999.90;999.90;;;;;;;20.13;100.00;93542.19;5063869;28;20180;-60
2023/08/25 03:52:18;;;;;;;1999.90;999.90;;;;;;;20.13;100.00;93542.19;5064046;28;20174;-62
2023/08/25 03:54:43;;;;;;;1999.90;999.90;;;;;;;20.13;100.00;93542.19;5063820;28;20178;-60
2023/08/25 03:57:08;;;;;;;1999.90;999.90;;;;;;;20.13;100.00;93542.19;5063999;28;20182;-60
2023/08/25 03:59:34;;;;;;;1999.90;999.90;;;;;;;20.13;100.00;93542.19;5063461;28;20248;-60
2023/08/25 04:02:01;;;;;;;1999.90;999.90;;;;;;;20.13;100.00;93542.19;5064140;28;20169;-60
2023/08/25 04:04:27;;;;;;;1999.90;999.90;;;;;;;20.13;100.00;93542.19;5063419;28;20213;-60
2023/08/25 04:06:53;;;;;;;1999.90;999.90;;;;;;;20.13;100.00;93542.19;5063942;28;20177;-60
2023/08/25 04:09:19;;;;;;;1999.90;999.90;;;;;;;20.13;100.00;93542.19;5063399;28;20241;-61
2023/08/25 04:11:44;;;;;;;1999.90;999.90;;;;;;;20.13;100.00;93542.19;5063242;28;20189;-60
2023/08/25 04:14:09;;;;;;;1999.90;999.90;;;;;;;20.13;100.00;93542.19;5063350;28;20166;-60
2023/08/25 04:16:35;;;;;;;1999.90;999.90;;;;;;;20.13;100.00;93542.19;5063448;28;20166;-60
2023/08/25 04:19:00;;;;;;;1999.90;999.90;;;;;;;20.13;100.00;93542.19;5063296;28;20193;-60
2023/08/25 04:21:26;;;;;;;1999.90;999.90;;;;;;;20.13;100.00;93542.19;5065638;28;20165;-59
2023/08/25 04:23:51;;;;;;;1999.90;999.90;;;;;;;20.13;100.00;93542.19;5067286;28;20216;-60
2023/08/25 04:26:16;;;;;;;1999.90;999.90;;;;;;;20.13;100.00;93542.19;5067776;28;20169;-60
2023/08/25 04:28:42;;;;;;;1999.90;999.90;;;;;;;20.13;100.00;93542.19;5067648;28;20162;-60
2023/08/25 04:31:07;;;;;;;1999.90;999.90;;;;;;;20.13;100.00;93542.19;5067323;28;20162;-60
2023/08/25 04:33:32;;;;;;;1999.90;999.90;;;;;;;20.13;100.00;93542.19;5067195;28;20166;-60
2023/08/25 04:35:58;;;;;;;1999.90;999.90;;;;;;;20.13;100.00;93542.19;5067519;28;20166;-60
2023/08/25 04:38:23;;;;;;;1999.90;999.90;;;;;;;20.13;100.00;93542.19;5067225;28;20158;-61
2023/08/25 04:40:48;;;;;;;1999.90;999.90;;;;;;;20.13;100.00;93542.19;5067491;28;20203;-61
2023/08/25 04:43:14;;;;;;;1999.90;999.90;;;;;;;20.13;100.00;93542.19;5066827;28;20222;-61
2023/08/25 04:45:39;;;;;;;1999.90;999.90;;;;;;;20.13;100.00;93542.19;5066994;28;20166;-61
2023/08/25 04:48:04;;;;;;;1999.90;999.90;;;;;;;20.13;100.00;93542.19;5066551;28;20166;-60
2023/08/25 04:50:30;;;;;;;1999.90;999.90;;;;;;;20.13;100.00;93542.19;5066839;28;20278;-61
2023/08/25 04:52:55;;;;;;;1999.90;999.90;;;;;;;20.13;100.00;93542.19;5066855;28;20180;-60
2023/08/25 04:55:20;;;;;;;1999.90;999.90;;;;;;;20.13;100.00;93542.19;5066635;28;20177;-61
2023/08/25 04:57:46;;;;;;;1999.90;999.90;;;;;;;20.13;100.00;93542.19;5067205;28;20241;-60
2023/08/25 05:00:12;;;;;;;1999.90;999.90;;;;;;;20.13;100.00;93542.19;5066499;28;20228;-61
2023/08/25 05:02:37;;;;;;;1999.90;999.90;;;;;;;20.13;100.00;93542.19;5066471;28;20196;-61
2023/08/25 05:05:05;;;;;;;1999.90;999.90;;;;;;;24.60;100.00;95037.31;5066440;28;20198;-60
2023/08/25 05:07:31;;;;;;;1999.90;999.90;;;;;;;24.38;100.00;95015.66;5067045;28;20162;-60
2023/08/25 05:09:56;;;;;;;1999.90;999.90;;;;;;;24.28;100.00;95010.78;5066433;28;20192;-59
2023/08/25 05:12:21;;;;;;;1999.90;999.90;;;;;;;24.11;100.00;95007.16;5066836;28;20253;-60
2023/08/25 05:14:47;;;;;;;1999.90;999.90;;;;;;;24.11;100.00;95007.16;5066390;28;20166;-62
2023/08/25 05:17:12;;;;;;;1999.90;999.90;;;;;;;23.96;100.00;95001.00;5066210;28;20478;-61
2023/08/25 05:19:37;;;;;;;1999.90;999.90;;;;;;;23.96;100.00;95001.00;5066186;28;20162;-61
2023/08/25 05:22:02;;;;;;;1999.90;999.90;;;;;;;23.96;100.00;95001.00;5066706;28;20173;-61
2023/08/25 05:24:28;;;;;;;1999.90;999.90;;;;;;;23.96;100.00;95001.00;5066036;28;20182;-61
2023/08/25 05:26:54;;;;;;;1999.90;999.90;;;;;;;23.96;100.00;95001.00;5066133;28;20182;-60
2023/08/25 05:29:29;;;;;;;1999.90;999.90;;;;;;;23.96;100.00;95001.00;5066060;28;20216;-66
2023/08/25 05:31:55;;;;;;;1999.90;999.90;;;;;;;23.96;100.00;95001.00;5066263;28;20162;-66
2023/08/25 05:34:20;;;;;;;1999.90;999.90;;;;;;;23.96;100.00;95001.00;5065963;28;20215;-68
2023/08/25 05:36:46;;;;;;;1999.90;999.90;;;;;;;23.96;100.00;95001.00;5066260;28;20158;-68
2023/08/25 05:39:12;;;;;;;1999.90;999.90;;;;;;;23.96;100.00;95001.00;5065871;28;20166;-68
2023/08/25 05:41:37;;;;;;;1999.90;999.90;;;;;;;23.96;100.00;95001.00;5065560;28;20236;-69
2023/08/25 05:44:03;;;;;;;1999.90;999.90;;;;;;;23.96;100.00;95001.00;5065716;28;20217;-70
2023/08/25 05:46:30;;;;;;;1999.90;999.90;;;;;;;23.96;100.00;95001.00;5065740;28;20233;-69
2023/08/25 05:48:56;;;;;;;1999.90;999.90;;;;;;;23.96;100.00;95001.00;5066166;28;20154;-69
2023/08/25 05:51:21;;;;;;;1999.90;999.90;;;;;;;23.96;100.00;95001.00;5066125;28;20162;-70
2023/08/25 05:53:47;;;;;;;1999.90;999.90;;;;;;;23.96;100.00;95001.00;5065591;28;20162;-69
2023/08/25 05:56:13;;;;;;;1999.90;999.90;;;;;;;23.96;100.00;95001.00;5066309;28;20166;-69
2023/08/25 05:58:41;;;;;;;1999.90;999.90;;;;;;;23.96;100.00;95001.00;5065602;28;20161;-69
2023/08/25 06:01:06;;;;;;;1999.90;999.90;;;;;;;23.96;100.00;95001.00;5065358;28;20224;-69
2023/08/25 06:03:32;;;;;;;1999.90;999.90;;;;;;;23.96;100.00;95001.00;5065318;28;20213;-68
2023/08/25 06:05:57;;;;;;;1999.90;999.90;;;;;;;23.96;100.00;95001.00;5065498;28;20170;-68
2023/08/25 06:08:22;;;;;;;1999.90;999.90;;;;;;;23.96;100.00;95001.00;5065261;28;20173;-68
2023/08/25 06:10:51;;;;;;;1999.90;999.90;;;;;;;23.96;100.00;95001.00;5065489;28;20166;-68
2023/08/25 06:13:17;;;;;;;1999.90;999.90;;;;;;;23.96;100.00;95001.00;5065188;28;20170;-69
2023/08/25 06:15:43;;;;;;;1999.90;999.90;;;;;;;23.96;100.00;95001.00;5065244;28;20239;-68
2023/08/25 06:18:08;;;;;;;1999.90;999.90;;;;;;;23.96;100.00;95001.00;5065618;28;20166;-70
2023/08/25 06:20:33;;;;;;;1999.90;999.90;;;;;;;23.96;100.00;95001.00;5065153;28;20166;-70
2023/08/25 06:22:59;;;;;;;1999.90;999.90;;;;;;;23.96;100.00;95001.00;5064961;28;20193;-70
2023/08/25 06:25:25;;;;;;;1999.90;999.90;;;;;;;23.96;100.00;95001.00;5065004;28;20218;-68
2023/08/25 06:27:50;;;;;;;1999.90;999.90;;;;;;;23.96;100.00;95001.00;5065060;28;20196;-67
2023/08/25 06:30:17;;;;;;;1999.90;999.90;;;;;;;23.96;100.00;95001.00;5065360;28;20169;-67
2023/08/25 06:32:45;;;;;;;1999.90;999.90;;;;;;;28.34;100.00;94934.03;5064789;28;20161;-67
2023/08/25 06:35:14;;;;;;;1999.90;999.90;;;;;;;28.34;100.00;94934.03;5065230;28;20207;-67
2023/08/25 06:37:39;;;;;;;1999.90;999.90;;;;;;;28.34;100.00;94934.03;5064800;28;20185;-67
2023/08/25 06:40:08;;;;;;;1999.90;999.90;;;;;;;28.10;100.00;94906.75;5064986;28;20162;-65
2023/08/25 06:42:34;;;;;;;1999.90;999.90;;;;;;;28.09;100.00;94902.38;5065196;28;20185;-67
2023/08/25 06:45:00;;;;;;;1999.90;999.90;;;;;;;27.99;100.00;94895.63;5064299;28;20200;-67
2023/08/25 06:47:27;;;;;;;1999.90;999.90;;;;;;;28.00;100.00;94887.97;5064495;28;20170;-68
2023/08/25 06:49:53;;;;;;;1999.90;999.90;;;;;;;28.44;100.00;94883.84;5064586;28;20173;-68
2023/08/25 06:52:19;;;;;;;1999.90;999.90;;;;;;;29.14;100.00;94891.72;5064943;28;20161;-68
2023/08/25 06:54:44;;;;;;;1999.90;999.90;;;;;;;29.97;100.00;94899.44;5064880;28;20224;-67
2023/08/25 06:57:10;;;;;;;1999.90;999.90;;;;;;;30.63;100.00;94898.78;5064296;28;20166;-67
2023/08/25 06:59:35;;;;;;;1999.90;999.90;;;;;;;30.17;100.00;94904.41;5064125;28;20213;-67
2023/08/25 07:02:00;;;;;;;1999.90;999.90;;;;;;;29.40;100.00;94903.81;5064542;28;20165;-66
2023/08/25 07:04:26;;;;;;;1999.90;999.90;;;;;;;28.95;100.00;94902.25;5064211;28;20198;-67
2023/08/25 07:06:51;;;;;;;1999.90;999.90;;;;;;;28.49;100.00;94899.84;5064715;28;20162;-66
2023/08/25 07:09:17;;;;;;;1999.90;999.90;;;;;;;28.24;100.00;94897.09;5064183;28;20166;-67
2023/08/25 07:11:43;;;;;;;1999.90;999.90;;;;;;;28.06;100.00;94902.69;5063784;28;20166;-68
2023/08/25 07:14:08;;;;;;;1999.90;999.90;;;;;;;28.19;100.00;94897.94;5064649;28;20162;-67
2023/08/25 07:16:34;;;;;;;1999.90;999.90;;;;;;;28.70;100.00;94900.84;5064746;28;20193;-66
2023/08/25 07:18:59;;;;;;;1999.90;999.90;;;;;;;30.12;100.00;94905.28;5063764;28;20162;-66
2023/08/25 07:21:25;;;;;;;1999.90;999.90;;;;;;;31.00;100.00;94904.09;5063936;28;20194;-66
2023/08/25 07:23:50;;;;;;;1999.90;999.90;;;;;;;30.59;100.00;94908.91;5064213;28;20409;-68
2023/08/25 07:26:15;;;;;;;1999.90;999.90;;;;;;;30.38;100.00;94905.25;5063862;28;20210;-67
2023/08/25 07:28:41;;;;;;;1999.90;999.90;;;;;;;30.67;100.00;94892.81;5063937;28;20208;-68
2023/08/25 07:31:07;;;;;;;1999.90;999.90;;;;;;;32.63;88.92;94912.09;5063867;28;20170;-67
2023/08/25 07:33:32;;;;;;;1999.90;999.90;;;;;;;32.63;88.92;94912.09;5064720;28;20177;-66
2023/08/25 07:35:58;;;;;;;1999.90;999.90;;;;;;;32.63;88.92;94912.09;5064231;28;20170;-67
2023/08/25 07:38:24;;;;;;;1999.90;999.90;;;;;;;32.63;88.92;94912.09;5063801;28;20169;-67
2023/08/25 07:40:50;;;;;;;1999.90;999.90;;;;;;;32.63;88.92;94912.09;5063773;28;20193;-66
2023/08/25 07:43:15;;;;;;;1999.90;999.90;;;;;;;32.63;88.92;94912.09;5064153;28;20206;-66
2023/08/25 07:45:41;;;;;;;1999.90;999.90;;;;;;;32.63;88.92;94912.09;5063793;28;20166;-66
2023/08/25 07:48:08;;;;;;;1999.90;999.90;;;;;;;32.63;88.92;94912.09;5063813;28;20165;-66
2023/08/25 07:50:33;;;;;;;1999.90;999.90;;;;;;;32.63;88.92;94912.09;5064262;28;20177;-65
2023/08/25 07:52:59;;;;;;;1999.90;999.90;;;;;;;32.63;88.92;94912.09;5063658;28;20162;-66
2023/08/25 07:55:25;;;;;;;1999.90;999.90;;;;;;;32.63;88.92;94912.09;5064383;28;20176;-66
2023/08/25 07:57:51;;;;;;;1999.90;999.90;;;;;;;32.63;88.92;94912.09;5068098;28;20166;-66
2023/08/25 08:00:18;;;;;;;1999.90;999.90;;;;;;;32.63;88.92;94912.09;5067438;28;20217;-67
2023/08/25 08:02:44;;;;;;;1999.90;999.90;;;;;;;32.63;88.92;94912.09;5068578;28;20232;-65
2023/08/25 08:05:10;;;;;;;1999.90;999.90;;;;;;;32.63;88.92;94912.09;5067630;28;20209;-67
2023/08/25 08:07:36;;;;;;;1999.90;999.90;;;;;;;30.70;99.53;94998.91;5067752;28;20170;-67
2023/08/25 08:10:03;;;;;;;1999.90;999.90;;;;;;;30.23;100.00;95001.66;5068398;28;20172;-64
2023/08/25 08:12:28;;;;;;;1999.90;999.90;;;;;;;29.89;100.00;95011.22;5067586;28;20361;-66
2023/08/25 08:14:54;;;;;;;1999.90;999.90;;;;;;;29.89;100.00;95011.22;5067397;28;20170;-66
2023/08/25 08:17:19;;;;;;;1999.90;999.90;;;;;;;29.89;100.00;95011.22;5067399;28;20177;-67
2023/08/25 08:19:45;;;;;;;1999.90;999.90;;;;;;;29.89;100.00;95011.22;5067310;28;20169;-68
2023/08/25 08:22:10;;;;;;;1999.90;999.90;;;;;;;28.46;100.00;94980.38;5067898;28;20179;-68
2023/08/25 08:24:36;;;;;;;1999.90;999.90;;;;;;;28.18;100.00;94977.88;5067151;28;20201;-67
2023/08/25 08:27:02;;;;;;;1999.90;999.90;;;;;;;28.03;100.00;94977.56;5067897;28;20170;-67
2023/08/25 08:29:27;;;;;;;1999.90;999.90;;;;;;;27.64;100.00;95001.69;5067125;28;20170;-61
2023/08/25 08:31:55;;;;;;;1999.90;999.90;;;;;;;27.64;100.00;95001.69;5067497;28;20188;-61
2023/08/25 08:34:20;;;;;;;1999.90;999.90;;;;;;;27.64;100.00;95001.69;5067151;28;20208;-61
2023/08/25 08:36:47;;;;;;;1999.90;999.90;;;;;;;27.64;100.00;95001.69;5067225;28;20166;-61
2023/08/25 08:39:12;;;;;;;1999.90;999.90;;;;;;;27.64;100.00;95001.69;5066988;28;20166;-61
2023/08/25 08:41:38;;;;;;;1999.90;999.90;;;;;;;27.64;100.00;95001.69;5067482;28;20176;-61
2023/08/25 08:44:08;;;;;;;1999.90;999.90;;;;;;;27.64;100.00;95001.69;5067224;28;20220;-62
2023/08/25 08:46:36;;;;;;;1999.90;999.90;;;;;;;27.64;100.00;95001.69;5067070;28;20197;-61
2023/08/25 08:49:02;;;;;;;1999.90;999.90;;;;;;;27.64;100.00;95001.69;5066959;28;20162;-61
2023/08/25 08:51:30;;;;;;;1999.90;999.90;;;;;;;27.64;100.00;95001.69;5067351;28;20178;-59
2023/08/25 08:53:56;;;;;;;1999.90;999.90;;;;;;;27.64;100.00;95001.69;5066766;28;20173;-62
2023/08/25 08:56:22;;;;;;;1999.90;999.90;;;;;;;27.64;100.00;95001.69;5067207;28;20208;-60
2023/08/25 08:58:48;;;;;;;1999.90;999.90;;;;;;;27.64;100.00;95001.69;5067131;28;20177;-61
2023/08/25 09:01:16;;;;;;;1999.90;999.90;;;;;;;27.64;100.00;95001.69;5066974;28;20226;-61
2023/08/25 09:03:42;;;;;;;1999.90;999.90;;;;;;;27.64;100.00;95001.69;5066597;28;20197;-62
2023/08/25 09:06:08;;;;;;;1999.90;999.90;;;;;;;27.64;100.00;95001.69;5066344;28;20167;-60
2023/08/25 09:08:36;;;;;;;1999.90;999.90;;;;;;;27.64;100.00;95001.69;5066935;28;20166;-61
2023/08/25 09:11:04;;;;;;;1999.90;999.90;;;;;;;27.64;100.00;95001.69;5066976;28;20220;-60
2023/08/25 09:13:33;;;;;;;1999.90;999.90;;;;;;;27.64;100.00;95001.69;5067174;28;20170;-60
2023/08/25 09:16:00;;;;;;;1999.90;999.90;;;;;;;27.64;100.00;95001.69;5066901;28;20162;-60
2023/08/25 09:18:34;;;;;;;1999.90;999.90;;;;;;;27.64;100.00;95001.69;5066785;28;20169;-59
2023/08/25 09:21:00;;;;;;;1999.90;999.90;;;;;;;27.64;100.00;95001.69;5066937;28;20166;-58
2023/08/25 09:23:25;;;;;;;1999.90;999.90;;;;;;;25.94;100.00;95292.47;5066190;28;20228;-58
2023/08/25 09:25:53;;;;;;;1999.90;999.90;;;;;;;26.41;100.00;95290.75;5066872;28;20281;-57
2023/08/25 09:28:23;;;;;;;1999.90;999.90;;;;;;;26.59;100.00;95279.81;5066063;28;20173;-59
2023/08/25 09:30:48;;;;;;;1999.90;999.90;;;;;;;26.38;100.00;95275.72;5066592;28;20170;-62
2023/08/25 09:33:14;;;;;;;1999.90;999.90;;;;;;;26.59;100.00;95262.22;5066239;28;20217;-64
2023/08/25 09:35:40;;;;;;;1999.90;999.90;;;;;;;26.77;100.00;95251.25;5066253;28;20177;-62
2023/08/25 09:38:07;;;;;;;1999.90;999.90;;;;;;;27.24;100.00;95258.53;5066389;28;20170;-62
2023/08/25 09:40:35;;;;;;;1999.90;999.90;;;;;;;27.69;100.00;95254.28;5065933;28;20246;-63
2023/08/25 09:43:02;;;;;;;1999.90;999.90;;;;;;;27.95;100.00;95243.44;5065752;28;20205;-63
2023/08/25 09:45:28;;;;;;;1999.90;999.90;;;;;;;28.52;100.00;95224.88;5066256;28;20174;-65
2023/08/25 09:48:05;;;;;;;1999.90;999.90;;;;;;;28.52;100.00;95224.88;5065663;28;20179;-64
2023/08/25 09:50:36;;;;;;;1999.90;999.90;;;;;;;28.52;100.00;95224.88;5065971;28;20161;-64
2023/08/25 09:53:05;;;;;;;1999.90;999.90;;;;;;;28.52;100.00;95224.88;5066161;28;20167;-65
2023/08/25 09:55:31;;;;;;;1999.90;999.90;;;;;;;28.52;100.00;95224.88;5065616;28;20166;-65
2023/08/25 09:57:56;;;;;;;1999.90;999.90;;;;;;;28.52;100.00;95224.88;5065590;28;20169;-65
2023/08/25 10:00:22;;;;;;;1999.90;999.90;;;;;;;28.52;100.00;95224.88;5065517;28;20280;-65
2023/08/25 10:02:50;;;;;;;1999.90;999.90;;;;;;;28.52;100.00;95224.88;5065586;28;20166;-65
2023/08/25 10:05:17;;;;;;;1999.90;999.90;;;;;;;28.52;100.00;95224.88;5065973;28;20257;-66
2023/08/25 10:07:43;;;;;;;1999.90;999.90;;;;;;;28.52;100.00;95224.88;5065911;28;20162;-62
2023/08/25 10:10:09;;;;;;;1999.90;999.90;;;;;;;28.52;100.00;95224.88;5065813;28;20169;-63
2023/08/25 10:12:37;;;;;;;1999.90;999.90;;;;;;;32.00;100.00;95235.09;5065334;28;20161;-62
2023/08/25 10:15:06;;;;;;;1999.90;999.90;;;;;;;33.13;100.00;95243.41;5065193;28;20166;-65
2023/08/25 10:17:33;;;;;;;1999.90;999.90;;;;;;;33.13;100.00;95243.41;5065060;28;20196;-68
2023/08/25 10:20:04;;;;;;;1999.90;999.90;;;;;;;33.13;100.00;95243.41;5064879;28;20162;-67
2023/08/25 10:22:30;;;;;;;1999.90;999.90;;;;;;;33.13;100.00;95243.41;5065665;28;20166;-67
2023/08/25 10:25:00;;;;;;;1999.90;999.90;;;;;;;33.13;100.00;95243.41;5064990;28;20190;-67
2023/08/25 10:27:27;;;;;;;1999.90;999.90;;;;;;;35.09;97.42;95249.81;5065080;28;20200;-65
2023/08/25 10:29:53;;;;;;;1999.90;999.90;;;;;;;34.36;97.74;95252.75;5064940;28;20198;-67
2023/08/25 10:32:19;;;;;;;1999.90;999.90;;;;;;;34.62;94.80;95252.44;5065463;28;20163;-63
2023/08/25 10:34:46;;;;;;;1999.90;999.90;;;;;;;34.38;94.12;95267.13;5065453;28;20193;-66
2023/08/25 10:37:30;;;;;;;1999.90;999.90;;;;;;;34.17;94.70;95260.81;5065561;28;20162;-66
2023/08/25 10:40:06;;;;;;;1999.90;999.90;;;;;;;34.23;93.54;95272.75;5065300;28;20192;-66
2023/08/25 10:42:34;;;;;;;1999.90;999.90;;;;;;;34.19;94.12;95270.25;5065050;28;20166;-68
2023/08/25 10:45:09;;;;;;;1999.90;999.90;;;;;;;34.14;97.58;95256.25;5065132;28;20269;-65